sensor_id;sensor_type;location;lat;lon;timestamp;P1;durP1;ratioP1;P2;durP2;ratioP2
25982;SDS011;13773;48.868;10.730;2024-02-04T00:01:18;1.60;;;1.50;;
25982;SDS011;13773;48.868;10.730;2024-02-04T00:03:44;1.87;;;1.67;;
25982;SDS011;13773;48.868;10.730;2024-02-04T00:06:10;1.60;;;1.50;;
25982;SDS011;13773;48.868;10.730;2024-02-04T00:08:35;1.57;;;1.40;;
25982;SDS011;13773;48.868;10.730;2024-02-04T00:11:01;1.93;;;1.73;;
25982;SDS011;13773;48.868;10.730;2024-02-04T00:13:29;1.87;;;1.40;;
25982;SDS011;13773;48.868;10.730;2024-02-04T00:15:55;1.50;;;1.40;;
25982;SDS011;13773;48.868;10.730;2024-02-04T00:18:23;2.97;;;1.57;;
25982;SDS011;13773;48.868;10.730;2024-02-04T00:20:49;1.63;;;1.53;;
25982;SDS011;13773;48.868;10.730;2024-02-04T00:23:15;2.10;;;1.67;;
25982;SDS011;13773;48.868;10.730;2024-02-04T00:25:41;2.93;;;1.90;;
25982;SDS011;13773;48.868;10.730;2024-02-04T00:28:07;1.80;;;1.70;;
25982;SDS011;13773;48.868;10.730;2024-02-04T00:30:36;2.37;;;1.83;;
25982;SDS011;13773;48.868;10.730;2024-02-04T00:33:02;1.70;;;1.60;;
25982;SDS011;13773;48.868;10.730;2024-02-04T00:35:29;2.67;;;2.13;;
25982;SDS011;13773;48.868;10.730;2024-02-04T00:37:55;3.00;;;2.10;;
25982;SDS011;13773;48.868;10.730;2024-02-04T00:40:20;2.67;;;1.80;;
25982;SDS011;13773;48.868;10.730;2024-02-04T00:42:46;2.10;;;1.90;;
25982;SDS011;13773;48.868;10.730;2024-02-04T00:45:12;2.60;;;2.20;;
25982;SDS011;13773;48.868;10.730;2024-02-04T00:47:38;2.87;;;2.47;;
25982;SDS011;13773;48.868;10.730;2024-02-04T00:50:04;3.00;;;2.03;;
25982;SDS011;13773;48.868;10.730;2024-02-04T00:52:30;2.60;;;2.00;;
25982;SDS011;13773;48.868;10.730;2024-02-04T00:54:56;2.97;;;2.60;;
25982;SDS011;13773;48.868;10.730;2024-02-04T00:57:21;3.30;;;2.07;;
25982;SDS011;13773;48.868;10.730;2024-02-04T00:59:47;2.67;;;2.27;;
25982;SDS011;13773;48.868;10.730;2024-02-04T01:02:13;2.60;;;2.00;;
25982;SDS011;13773;48.868;10.730;2024-02-04T01:04:38;2.43;;;2.00;;
25982;SDS011;13773;48.868;10.730;2024-02-04T01:07:04;2.00;;;1.80;;
25982;SDS011;13773;48.868;10.730;2024-02-04T01:09:30;2.33;;;2.10;;
25982;SDS011;13773;48.868;10.730;2024-02-04T01:11:55;2.03;;;1.73;;
25982;SDS011;13773;48.868;10.730;2024-02-04T01:14:21;3.23;;;1.73;;
25982;SDS011;13773;48.868;10.730;2024-02-04T01:16:46;3.87;;;2.43;;
25982;SDS011;13773;48.868;10.730;2024-02-04T01:19:12;3.63;;;2.33;;
25982;SDS011;13773;48.868;10.730;2024-02-04T01:21:38;3.67;;;2.03;;
25982;SDS011;13773;48.868;10.730;2024-02-04T01:24:04;2.57;;;2.10;;
25982;SDS011;13773;48.868;10.730;2024-02-04T01:26:30;2.37;;;1.80;;
25982;SDS011;13773;48.868;10.730;2024-02-04T01:28:55;2.37;;;1.70;;
25982;SDS011;13773;48.868;10.730;2024-02-04T01:31:21;1.40;;;1.30;;
25982;SDS011;13773;48.868;10.730;2024-02-04T01:33:46;1.73;;;1.53;;
25982;SDS011;13773;48.868;10.730;2024-02-04T01:36:12;1.63;;;1.30;;
25982;SDS011;13773;48.868;10.730;2024-02-04T01:38:38;1.60;;;1.50;;
25982;SDS011;13773;48.868;10.730;2024-02-04T01:41:03;2.33;;;1.40;;
25982;SDS011;13773;48.868;10.730;2024-02-04T01:43:29;1.63;;;1.23;;
25982;SDS011;13773;48.868;10.730;2024-02-04T01:45:56;1.63;;;1.50;;
25982;SDS011;13773;48.868;10.730;2024-02-04T01:48:22;1.20;;;1.10;;
25982;SDS011;13773;48.868;10.730;2024-02-04T01:50:48;1.60;;;1.47;;
25982;SDS011;13773;48.868;10.730;2024-02-04T01:53:18;1.30;;;1.20;;
25982;SDS011;13773;48.868;10.730;2024-02-04T01:55:47;1.20;;;1.10;;
25982;SDS011;13773;48.868;10.730;2024-02-04T01:58:14;1.40;;;1.23;;
25982;SDS011;13773;48.868;10.730;2024-02-04T02:00:40;1.20;;;1.10;;
25982;SDS011;13773;48.868;10.730;2024-02-04T02:03:06;1.43;;;1.20;;
25982;SDS011;13773;48.868;10.730;2024-02-04T02:05:33;1.60;;;1.40;;
25982;SDS011;13773;48.868;10.730;2024-02-04T02:07:59;2.10;;;1.20;;
25982;SDS011;13773;48.868;10.730;2024-02-04T02:10:25;2.57;;;1.40;;
25982;SDS011;13773;48.868;10.730;2024-02-04T02:13:04;1.50;;;1.30;;
25982;SDS011;13773;48.868;10.730;2024-02-04T02:15:36;1.67;;;1.40;;
25982;SDS011;13773;48.868;10.730;2024-02-04T02:18:11;1.10;;;1.00;;
25982;SDS011;13773;48.868;10.730;2024-02-04T02:23:30;1.37;;;1.17;;
25982;SDS011;13773;48.868;10.730;2024-02-04T02:25:59;1.20;;;1.10;;
25982;SDS011;13773;48.868;10.730;2024-02-04T02:28:26;1.27;;;1.17;;
25982;SDS011;13773;48.868;10.730;2024-02-04T02:30:52;1.97;;;1.00;;
25982;SDS011;13773;48.868;10.730;2024-02-04T02:33:17;1.27;;;0.80;;
25982;SDS011;13773;48.868;10.730;2024-02-04T02:35:44;1.20;;;1.00;;
25982;SDS011;13773;48.868;10.730;2024-02-04T02:40:59;0.93;;;0.80;;
25982;SDS011;13773;48.868;10.730;2024-02-04T02:43:29;0.87;;;0.87;;
25982;SDS011;13773;48.868;10.730;2024-02-04T02:45:55;1.63;;;0.80;;
25982;SDS011;13773;48.868;10.730;2024-02-04T02:48:21;0.90;;;0.90;;
25982;SDS011;13773;48.868;10.730;2024-02-04T02:50:47;0.80;;;0.80;;
25982;SDS011;13773;48.868;10.730;2024-02-04T02:53:13;1.20;;;1.10;;
25982;SDS011;13773;48.868;10.730;2024-02-04T02:55:38;1.17;;;1.07;;
25982;SDS011;13773;48.868;10.730;2024-02-04T02:58:05;1.00;;;0.90;;
25982;SDS011;13773;48.868;10.730;2024-02-04T03:00:32;1.73;;;1.10;;
25982;SDS011;13773;48.868;10.730;2024-02-04T03:02:58;1.10;;;1.00;;
25982;SDS011;13773;48.868;10.730;2024-02-04T03:05:24;1.10;;;1.00;;
25982;SDS011;13773;48.868;10.730;2024-02-04T03:07:50;1.10;;;1.00;;
25982;SDS011;13773;48.868;10.730;2024-02-04T03:10:15;1.00;;;0.90;;
25982;SDS011;13773;48.868;10.730;2024-02-04T03:12:41;0.80;;;0.80;;
25982;SDS011;13773;48.868;10.730;2024-02-04T03:15:07;1.83;;;0.93;;
25982;SDS011;13773;48.868;10.730;2024-02-04T03:17:33;1.00;;;0.80;;
25982;SDS011;13773;48.868;10.730;2024-02-04T03:19:58;0.90;;;0.90;;
25982;SDS011;13773;48.868;10.730;2024-02-04T03:22:24;1.80;;;0.97;;
25982;SDS011;13773;48.868;10.730;2024-02-04T03:24:50;1.10;;;0.80;;
25982;SDS011;13773;48.868;10.730;2024-02-04T03:27:17;1.13;;;1.03;;
25982;SDS011;13773;48.868;10.730;2024-02-04T03:29:43;0.80;;;0.80;;
25982;SDS011;13773;48.868;10.730;2024-02-04T03:32:10;1.60;;;0.97;;
25982;SDS011;13773;48.868;10.730;2024-02-04T03:34:36;1.10;;;1.00;;
25982;SDS011;13773;48.868;10.730;2024-02-04T03:37:01;0.80;;;0.80;;
25982;SDS011;13773;48.868;10.730;2024-02-04T03:39:27;0.87;;;0.87;;
25982;SDS011;13773;48.868;10.730;2024-02-04T03:41:53;0.87;;;0.87;;
25982;SDS011;13773;48.868;10.730;2024-02-04T03:44:19;1.13;;;1.00;;
25982;SDS011;13773;48.868;10.730;2024-02-04T03:46:47;1.10;;;1.00;;
25982;SDS011;13773;48.868;10.730;2024-02-04T03:49:14;1.23;;;1.00;;
25982;SDS011;13773;48.868;10.730;2024-02-04T03:51:39;1.00;;;0.90;;
25982;SDS011;13773;48.868;10.730;2024-02-04T03:54:05;1.00;;;0.93;;
25982;SDS011;13773;48.868;10.730;2024-02-04T03:56:30;1.03;;;0.93;;
25982;SDS011;13773;48.868;10.730;2024-02-04T03:58:56;1.33;;;1.17;;
25982;SDS011;13773;48.868;10.730;2024-02-04T04:01:22;1.70;;;1.20;;
25982;SDS011;13773;48.868;10.730;2024-02-04T04:03:48;1.10;;;1.00;;
25982;SDS011;13773;48.868;10.730;2024-02-04T04:06:14;1.40;;;1.10;;
25982;SDS011;13773;48.868;10.730;2024-02-04T04:08:40;2.13;;;1.10;;
25982;SDS011;13773;48.868;10.730;2024-02-04T04:11:09;1.23;;;1.13;;
25982;SDS011;13773;48.868;10.730;2024-02-04T04:13:35;1.10;;;0.97;;
25982;SDS011;13773;48.868;10.730;2024-02-04T04:16:02;1.90;;;1.17;;
25982;SDS011;13773;48.868;10.730;2024-02-04T04:18:28;1.27;;;1.10;;
25982;SDS011;13773;48.868;10.730;2024-02-04T04:20:54;1.30;;;1.20;;
25982;SDS011;13773;48.868;10.730;2024-02-04T04:23:20;4.77;;;1.10;;
25982;SDS011;13773;48.868;10.730;2024-02-04T04:25:45;1.40;;;1.17;;
25982;SDS011;13773;48.868;10.730;2024-02-04T04:28:11;2.70;;;1.10;;
25982;SDS011;13773;48.868;10.730;2024-02-04T04:30:37;0.97;;;0.87;;
25982;SDS011;13773;48.868;10.730;2024-02-04T04:33:02;1.27;;;1.17;;
25982;SDS011;13773;48.868;10.730;2024-02-04T04:35:28;1.57;;;1.10;;
25982;SDS011;13773;48.868;10.730;2024-02-04T04:37:54;1.30;;;1.20;;
25982;SDS011;13773;48.868;10.730;2024-02-04T04:40:19;1.83;;;1.20;;
25982;SDS011;13773;48.868;10.730;2024-02-04T04:42:45;1.23;;;1.10;;
25982;SDS011;13773;48.868;10.730;2024-02-04T04:45:11;1.20;;;1.10;;
25982;SDS011;13773;48.868;10.730;2024-02-04T04:47:36;1.20;;;1.10;;
25982;SDS011;13773;48.868;10.730;2024-02-04T04:50:03;1.10;;;1.00;;
25982;SDS011;13773;48.868;10.730;2024-02-04T04:52:31;0.83;;;0.83;;
25982;SDS011;13773;48.868;10.730;2024-02-04T04:54:57;1.30;;;0.80;;
25982;SDS011;13773;48.868;10.730;2024-02-04T04:57:23;1.20;;;1.00;;
25982;SDS011;13773;48.868;10.730;2024-02-04T04:59:49;0.80;;;0.73;;
25982;SDS011;13773;48.868;10.730;2024-02-04T05:02:14;1.03;;;0.90;;
25982;SDS011;13773;48.868;10.730;2024-02-04T05:04:43;0.90;;;0.77;;
25982;SDS011;13773;48.868;10.730;2024-02-04T05:07:10;0.80;;;0.80;;
25982;SDS011;13773;48.868;10.730;2024-02-04T05:09:36;1.00;;;0.90;;
25982;SDS011;13773;48.868;10.730;2024-02-04T05:12:02;0.63;;;0.63;;
25982;SDS011;13773;48.868;10.730;2024-02-04T05:14:28;2.10;;;1.10;;
25982;SDS011;13773;48.868;10.730;2024-02-04T05:16:54;1.03;;;0.90;;
25982;SDS011;13773;48.868;10.730;2024-02-04T05:19:19;0.60;;;0.60;;
25982;SDS011;13773;48.868;10.730;2024-02-04T05:21:45;0.93;;;0.90;;
25982;SDS011;13773;48.868;10.730;2024-02-04T05:24:11;0.70;;;0.63;;
25982;SDS011;13773;48.868;10.730;2024-02-04T05:26:36;0.90;;;0.77;;
25982;SDS011;13773;48.868;10.730;2024-02-04T05:29:02;0.73;;;0.73;;
25982;SDS011;13773;48.868;10.730;2024-02-04T05:31:28;1.10;;;1.00;;
25982;SDS011;13773;48.868;10.730;2024-02-04T05:33:53;1.37;;;0.80;;
25982;SDS011;13773;48.868;10.730;2024-02-04T05:36:19;1.00;;;0.90;;
25982;SDS011;13773;48.868;10.730;2024-02-04T05:38:45;2.50;;;0.90;;
25982;SDS011;13773;48.868;10.730;2024-02-04T05:41:11;1.60;;;1.03;;
25982;SDS011;13773;48.868;10.730;2024-02-04T05:43:36;2.13;;;0.80;;
25982;SDS011;13773;48.868;10.730;2024-02-04T05:46:03;1.53;;;0.73;;
25982;SDS011;13773;48.868;10.730;2024-02-04T05:48:29;1.10;;;0.90;;
25982;SDS011;13773;48.868;10.730;2024-02-04T05:50:54;0.80;;;0.80;;
25982;SDS011;13773;48.868;10.730;2024-02-04T05:53:20;1.33;;;0.90;;
25982;SDS011;13773;48.868;10.730;2024-02-04T05:55:46;0.70;;;0.70;;
25982;SDS011;13773;48.868;10.730;2024-02-04T05:58:12;0.60;;;0.60;;
25982;SDS011;13773;48.868;10.730;2024-02-04T06:00:39;0.90;;;0.90;;
25982;SDS011;13773;48.868;10.730;2024-02-04T06:03:05;1.77;;;1.40;;
25982;SDS011;13773;48.868;10.730;2024-02-04T06:05:31;2.47;;;1.80;;
25982;SDS011;13773;48.868;10.730;2024-02-04T06:07:56;1.07;;;0.97;;
25982;SDS011;13773;48.868;10.730;2024-02-04T06:10:22;1.80;;;1.13;;
25982;SDS011;13773;48.868;10.730;2024-02-04T06:12:48;0.87;;;0.87;;
25982;SDS011;13773;48.868;10.730;2024-02-04T06:15:16;1.10;;;1.00;;
25982;SDS011;13773;48.868;10.730;2024-02-04T06:17:42;1.20;;;1.10;;
25982;SDS011;13773;48.868;10.730;2024-02-04T06:20:09;1.87;;;1.33;;
25982;SDS011;13773;48.868;10.730;2024-02-04T06:22:35;1.27;;;1.13;;
25982;SDS011;13773;48.868;10.730;2024-02-04T06:25:02;2.20;;;1.27;;
25982;SDS011;13773;48.868;10.730;2024-02-04T06:27:29;1.13;;;1.03;;
25982;SDS011;13773;48.868;10.730;2024-02-04T06:29:55;1.30;;;1.00;;
25982;SDS011;13773;48.868;10.730;2024-02-04T06:32:21;1.10;;;1.00;;
25982;SDS011;13773;48.868;10.730;2024-02-04T06:34:46;0.83;;;0.80;;
25982;SDS011;13773;48.868;10.730;2024-02-04T06:37:12;0.87;;;0.60;;
25982;SDS011;13773;48.868;10.730;2024-02-04T06:39:38;0.87;;;0.87;;
25982;SDS011;13773;48.868;10.730;2024-02-04T06:42:04;0.60;;;0.60;;
25982;SDS011;13773;48.868;10.730;2024-02-04T06:44:29;1.23;;;0.80;;
25982;SDS011;13773;48.868;10.730;2024-02-04T06:46:55;1.37;;;0.80;;
25982;SDS011;13773;48.868;10.730;2024-02-04T06:49:21;0.50;;;0.50;;
25982;SDS011;13773;48.868;10.730;2024-02-04T06:51:47;0.50;;;0.50;;
25982;SDS011;13773;48.868;10.730;2024-02-04T06:54:13;0.60;;;0.60;;
25982;SDS011;13773;48.868;10.730;2024-02-04T06:56:39;0.70;;;0.70;;
25982;SDS011;13773;48.868;10.730;2024-02-04T06:59:05;0.60;;;0.60;;
25982;SDS011;13773;48.868;10.730;2024-02-04T07:01:32;0.77;;;0.60;;
25982;SDS011;13773;48.868;10.730;2024-02-04T07:03:58;1.03;;;0.80;;
25982;SDS011;13773;48.868;10.730;2024-02-04T07:06:23;1.93;;;1.17;;
25982;SDS011;13773;48.868;10.730;2024-02-04T07:08:49;1.37;;;1.00;;
25982;SDS011;13773;48.868;10.730;2024-02-04T07:11:15;1.80;;;1.13;;
25982;SDS011;13773;48.868;10.730;2024-02-04T07:13:41;1.80;;;1.40;;
25982;SDS011;13773;48.868;10.730;2024-02-04T07:16:07;1.03;;;0.83;;
25982;SDS011;13773;48.868;10.730;2024-02-04T07:18:32;2.50;;;1.80;;
25982;SDS011;13773;48.868;10.730;2024-02-04T07:20:58;1.00;;;0.90;;
25982;SDS011;13773;48.868;10.730;2024-02-04T07:23:24;2.00;;;0.60;;
25982;SDS011;13773;48.868;10.730;2024-02-04T07:25:49;1.90;;;0.80;;
25982;SDS011;13773;48.868;10.730;2024-02-04T07:28:15;1.97;;;1.10;;
25982;SDS011;13773;48.868;10.730;2024-02-04T07:30:40;1.53;;;0.80;;
25982;SDS011;13773;48.868;10.730;2024-02-04T07:33:06;1.00;;;0.80;;
25982;SDS011;13773;48.868;10.730;2024-02-04T07:35:32;1.70;;;0.80;;
25982;SDS011;13773;48.868;10.730;2024-02-04T07:37:58;1.40;;;0.60;;
25982;SDS011;13773;48.868;10.730;2024-02-04T07:40:23;0.57;;;0.57;;
25982;SDS011;13773;48.868;10.730;2024-02-04T07:42:49;0.50;;;0.50;;
25982;SDS011;13773;48.868;10.730;2024-02-04T07:45:14;0.97;;;0.50;;
25982;SDS011;13773;48.868;10.730;2024-02-04T07:47:40;0.60;;;0.57;;
25982;SDS011;13773;48.868;10.730;2024-02-04T07:50:06;0.60;;;0.50;;
25982;SDS011;13773;48.868;10.730;2024-02-04T07:52:32;1.00;;;0.90;;
25982;SDS011;13773;48.868;10.730;2024-02-04T07:54:58;0.60;;;0.60;;
25982;SDS011;13773;48.868;10.730;2024-02-04T07:57:24;0.47;;;0.47;;
25982;SDS011;13773;48.868;10.730;2024-02-04T07:59:50;1.37;;;0.40;;
25982;SDS011;13773;48.868;10.730;2024-02-04T08:02:17;1.17;;;0.60;;
25982;SDS011;13773;48.868;10.730;2024-02-04T08:04:43;1.00;;;0.87;;
25982;SDS011;13773;48.868;10.730;2024-02-04T08:07:08;0.80;;;0.70;;
25982;SDS011;13773;48.868;10.730;2024-02-04T08:09:34;1.70;;;0.90;;
25982;SDS011;13773;48.868;10.730;2024-02-04T08:12:00;1.47;;;1.10;;
25982;SDS011;13773;48.868;10.730;2024-02-04T08:14:25;0.70;;;0.70;;
25982;SDS011;13773;48.868;10.730;2024-02-04T08:16:51;1.53;;;0.70;;
25982;SDS011;13773;48.868;10.730;2024-02-04T08:19:17;1.77;;;0.90;;
25982;SDS011;13773;48.868;10.730;2024-02-04T08:21:42;0.67;;;0.67;;
25982;SDS011;13773;48.868;10.730;2024-02-04T08:24:08;0.80;;;0.70;;
25982;SDS011;13773;48.868;10.730;2024-02-04T08:26:34;0.50;;;0.50;;
25982;SDS011;13773;48.868;10.730;2024-02-04T08:28:59;0.80;;;0.50;;
25982;SDS011;13773;48.868;10.730;2024-02-04T08:31:25;0.73;;;0.50;;
25982;SDS011;13773;48.868;10.730;2024-02-04T08:33:51;1.00;;;0.90;;
25982;SDS011;13773;48.868;10.730;2024-02-04T08:36:17;1.00;;;0.80;;
25982;SDS011;13773;48.868;10.730;2024-02-04T08:38:44;0.83;;;0.70;;
25982;SDS011;13773;48.868;10.730;2024-02-04T08:41:09;0.60;;;0.60;;
25982;SDS011;13773;48.868;10.730;2024-02-04T08:43:35;0.63;;;0.60;;
25982;SDS011;13773;48.868;10.730;2024-02-04T08:46:01;0.73;;;0.70;;
25982;SDS011;13773;48.868;10.730;2024-02-04T08:48:27;0.70;;;0.70;;
25982;SDS011;13773;48.868;10.730;2024-02-04T08:50:53;0.90;;;0.73;;
25982;SDS011;13773;48.868;10.730;2024-02-04T08:53:21;0.90;;;0.70;;
25982;SDS011;13773;48.868;10.730;2024-02-04T08:55:48;1.90;;;1.33;;
25982;SDS011;13773;48.868;10.730;2024-02-04T08:58:14;1.77;;;1.23;;
25982;SDS011;13773;48.868;10.730;2024-02-04T09:00:40;2.27;;;1.60;;
25982;SDS011;13773;48.868;10.730;2024-02-04T09:03:05;1.20;;;1.10;;
25982;SDS011;13773;48.868;10.730;2024-02-04T09:05:31;1.50;;;1.30;;
25982;SDS011;13773;48.868;10.730;2024-02-04T09:07:57;1.33;;;1.07;;
25982;SDS011;13773;48.868;10.730;2024-02-04T09:10:22;2.47;;;1.70;;
25982;SDS011;13773;48.868;10.730;2024-02-04T09:12:48;1.80;;;1.10;;
25982;SDS011;13773;48.868;10.730;2024-02-04T09:15:14;3.57;;;1.93;;
25982;SDS011;13773;48.868;10.730;2024-02-04T09:17:39;2.33;;;1.00;;
25982;SDS011;13773;48.868;10.730;2024-02-04T09:20:07;1.87;;;1.10;;
25982;SDS011;13773;48.868;10.730;2024-02-04T09:22:33;1.43;;;1.33;;
25982;SDS011;13773;48.868;10.730;2024-02-04T09:24:59;2.07;;;1.87;;
25982;SDS011;13773;48.868;10.730;2024-02-04T09:27:25;2.10;;;1.60;;
25982;SDS011;13773;48.868;10.730;2024-02-04T09:29:51;1.10;;;1.00;;
25982;SDS011;13773;48.868;10.730;2024-02-04T09:32:17;0.73;;;0.63;;
25982;SDS011;13773;48.868;10.730;2024-02-04T09:34:42;0.50;;;0.50;;
25982;SDS011;13773;48.868;10.730;2024-02-04T09:37:08;0.73;;;0.57;;
25982;SDS011;13773;48.868;10.730;2024-02-04T09:39:34;1.77;;;0.57;;
25982;SDS011;13773;48.868;10.730;2024-02-04T09:42:00;0.90;;;0.60;;
25982;SDS011;13773;48.868;10.730;2024-02-04T09:44:26;0.50;;;0.43;;
25982;SDS011;13773;48.868;10.730;2024-02-04T09:46:52;0.80;;;0.50;;
25982;SDS011;13773;48.868;10.730;2024-02-04T09:49:18;0.63;;;0.50;;
25982;SDS011;13773;48.868;10.730;2024-02-04T09:51:46;0.77;;;0.50;;
25982;SDS011;13773;48.868;10.730;2024-02-04T09:54:11;0.50;;;0.50;;
25982;SDS011;13773;48.868;10.730;2024-02-04T09:56:41;0.57;;;0.50;;
25982;SDS011;13773;48.868;10.730;2024-02-04T09:59:07;0.93;;;0.50;;
25982;SDS011;13773;48.868;10.730;2024-02-04T10:01:33;0.63;;;0.50;;
25982;SDS011;13773;48.868;10.730;2024-02-04T10:04:00;1.00;;;0.60;;
25982;SDS011;13773;48.868;10.730;2024-02-04T10:06:26;0.67;;;0.53;;
25982;SDS011;13773;48.868;10.730;2024-02-04T10:08:52;0.57;;;0.57;;
25982;SDS011;13773;48.868;10.730;2024-02-04T10:11:18;0.30;;;0.30;;
25982;SDS011;13773;48.868;10.730;2024-02-04T10:13:44;0.60;;;0.60;;
25982;SDS011;13773;48.868;10.730;2024-02-04T10:16:11;0.60;;;0.60;;
25982;SDS011;13773;48.868;10.730;2024-02-04T10:18:37;0.57;;;0.53;;
25982;SDS011;13773;48.868;10.730;2024-02-04T10:21:14;0.70;;;0.70;;
25982;SDS011;13773;48.868;10.730;2024-02-04T10:23:41;1.30;;;0.73;;
25982;SDS011;13773;48.868;10.730;2024-02-04T10:26:06;0.77;;;0.60;;
25982;SDS011;13773;48.868;10.730;2024-02-04T10:28:32;0.60;;;0.60;;
25982;SDS011;13773;48.868;10.730;2024-02-04T10:30:57;0.50;;;0.50;;
25982;SDS011;13773;48.868;10.730;2024-02-04T10:33:23;0.50;;;0.40;;
25982;SDS011;13773;48.868;10.730;2024-02-04T10:35:49;0.60;;;0.50;;
25982;SDS011;13773;48.868;10.730;2024-02-04T10:38:15;0.73;;;0.53;;
25982;SDS011;13773;48.868;10.730;2024-02-04T10:40:40;0.47;;;0.47;;
25982;SDS011;13773;48.868;10.730;2024-02-04T10:43:06;1.30;;;0.73;;
25982;SDS011;13773;48.868;10.730;2024-02-04T10:45:33;0.50;;;0.50;;
25982;SDS011;13773;48.868;10.730;2024-02-04T10:48:02;0.60;;;0.60;;
25982;SDS011;13773;48.868;10.730;2024-02-04T10:50:31;1.47;;;0.60;;
25982;SDS011;13773;48.868;10.730;2024-02-04T10:53:01;0.50;;;0.50;;
25982;SDS011;13773;48.868;10.730;2024-02-04T10:55:32;1.37;;;0.53;;
25982;SDS011;13773;48.868;10.730;2024-02-04T10:58:03;0.50;;;0.40;;
25982;SDS011;13773;48.868;10.730;2024-02-04T11:00:30;0.57;;;0.57;;
25982;SDS011;13773;48.868;10.730;2024-02-04T11:02:56;0.43;;;0.40;;
25982;SDS011;13773;48.868;10.730;2024-02-04T11:05:22;1.90;;;0.50;;
25982;SDS011;13773;48.868;10.730;2024-02-04T11:07:49;0.97;;;0.50;;
25982;SDS011;13773;48.868;10.730;2024-02-04T11:10:16;0.93;;;0.70;;
25982;SDS011;13773;48.868;10.730;2024-02-04T11:12:43;0.30;;;0.30;;
25982;SDS011;13773;48.868;10.730;2024-02-04T11:15:11;1.07;;;0.50;;
25982;SDS011;13773;48.868;10.730;2024-02-04T11:23:02;0.73;;;0.40;;
25982;SDS011;13773;48.868;10.730;2024-02-04T11:28:11;0.60;;;0.60;;
25982;SDS011;13773;48.868;10.730;2024-02-04T11:30:38;0.50;;;0.50;;
25982;SDS011;13773;48.868;10.730;2024-02-04T11:33:04;0.53;;;0.30;;
25982;SDS011;13773;48.868;10.730;2024-02-04T11:35:34;0.40;;;0.40;;
25982;SDS011;13773;48.868;10.730;2024-02-04T11:38:01;0.47;;;0.40;;
25982;SDS011;13773;48.868;10.730;2024-02-04T11:40:33;1.17;;;0.70;;
25982;SDS011;13773;48.868;10.730;2024-02-04T11:43:33;0.40;;;0.40;;
25982;SDS011;13773;48.868;10.730;2024-02-04T11:45:52;0.50;;;0.50;;
25982;SDS011;13773;48.868;10.730;2024-02-04T11:48:28;0.90;;;0.70;;
25982;SDS011;13773;48.868;10.730;2024-02-04T11:51:01;0.57;;;0.43;;
25982;SDS011;13773;48.868;10.730;2024-02-04T11:53:29;2.77;;;0.60;;
25982;SDS011;13773;48.868;10.730;2024-02-04T11:55:58;0.80;;;0.40;;
25982;SDS011;13773;48.868;10.730;2024-02-04T11:58:25;0.70;;;0.40;;
25982;SDS011;13773;48.868;10.730;2024-02-04T12:00:56;0.30;;;0.30;;
25982;SDS011;13773;48.868;10.730;2024-02-04T12:03:28;0.40;;;0.40;;
25982;SDS011;13773;48.868;10.730;2024-02-04T12:05:57;0.37;;;0.37;;
25982;SDS011;13773;48.868;10.730;2024-02-04T12:08:23;0.40;;;0.40;;
25982;SDS011;13773;48.868;10.730;2024-02-04T12:10:50;1.67;;;1.00;;
25982;SDS011;13773;48.868;10.730;2024-02-04T12:13:16;1.53;;;1.03;;
25982;SDS011;13773;48.868;10.730;2024-02-04T12:15:45;2.53;;;1.13;;
25982;SDS011;13773;48.868;10.730;2024-02-04T12:18:12;2.17;;;1.20;;
25982;SDS011;13773;48.868;10.730;2024-02-04T12:20:39;2.43;;;1.67;;
25982;SDS011;13773;48.868;10.730;2024-02-04T12:23:05;1.30;;;0.90;;
25982;SDS011;13773;48.868;10.730;2024-02-04T12:25:32;0.90;;;0.50;;
25982;SDS011;13773;48.868;10.730;2024-02-04T12:27:58;1.73;;;0.90;;
25982;SDS011;13773;48.868;10.730;2024-02-04T12:30:28;1.47;;;0.70;;
25982;SDS011;13773;48.868;10.730;2024-02-04T12:32:57;2.27;;;1.70;;
25982;SDS011;13773;48.868;10.730;2024-02-04T12:35:24;1.13;;;0.90;;
25982;SDS011;13773;48.868;10.730;2024-02-04T12:37:51;1.20;;;1.03;;
25982;SDS011;13773;48.868;10.730;2024-02-04T12:40:24;5.17;;;3.70;;
25982;SDS011;13773;48.868;10.730;2024-02-04T12:42:54;1.30;;;0.90;;
25982;SDS011;13773;48.868;10.730;2024-02-04T12:45:23;0.50;;;0.50;;
25982;SDS011;13773;48.868;10.730;2024-02-04T12:47:52;0.73;;;0.40;;
25982;SDS011;13773;48.868;10.730;2024-02-04T12:50:19;0.70;;;0.50;;
25982;SDS011;13773;48.868;10.730;2024-02-04T12:52:46;0.40;;;0.40;;
25982;SDS011;13773;48.868;10.730;2024-02-04T12:55:26;0.67;;;0.40;;
25982;SDS011;13773;48.868;10.730;2024-02-04T13:00:36;0.50;;;0.43;;
25982;SDS011;13773;48.868;10.730;2024-02-04T13:03:05;1.13;;;0.60;;
25982;SDS011;13773;48.868;10.730;2024-02-04T13:05:35;2.43;;;1.53;;
25982;SDS011;13773;48.868;10.730;2024-02-04T13:08:03;2.33;;;1.20;;
25982;SDS011;13773;48.868;10.730;2024-02-04T13:10:33;2.53;;;1.10;;
25982;SDS011;13773;48.868;10.730;2024-02-04T13:13:07;1.57;;;1.37;;
25982;SDS011;13773;48.868;10.730;2024-02-04T13:15:35;1.80;;;0.87;;
25982;SDS011;13773;48.868;10.730;2024-02-04T13:18:08;1.10;;;0.77;;
25982;SDS011;13773;48.868;10.730;2024-02-04T13:20:40;2.93;;;2.10;;
25982;SDS011;13773;48.868;10.730;2024-02-04T13:23:06;1.00;;;0.60;;
25982;SDS011;13773;48.868;10.730;2024-02-04T13:25:35;0.47;;;0.30;;
25982;SDS011;13773;48.868;10.730;2024-02-04T13:28:01;0.43;;;0.43;;
25982;SDS011;13773;48.868;10.730;2024-02-04T13:30:27;1.70;;;0.50;;
25982;SDS011;13773;48.868;10.730;2024-02-04T13:32:53;0.40;;;0.40;;
25982;SDS011;13773;48.868;10.730;2024-02-04T13:35:19;0.80;;;0.50;;
25982;SDS011;13773;48.868;10.730;2024-02-04T13:37:45;0.50;;;0.50;;
25982;SDS011;13773;48.868;10.730;2024-02-04T13:40:15;1.00;;;0.90;;
25982;SDS011;13773;48.868;10.730;2024-02-04T13:42:41;0.83;;;0.60;;
25982;SDS011;13773;48.868;10.730;2024-02-04T13:45:07;0.70;;;0.50;;
25982;SDS011;13773;48.868;10.730;2024-02-04T13:47:34;0.70;;;0.50;;
25982;SDS011;13773;48.868;10.730;2024-02-04T13:50:00;0.80;;;0.40;;
25982;SDS011;13773;48.868;10.730;2024-02-04T13:52:26;2.57;;;1.07;;
25982;SDS011;13773;48.868;10.730;2024-02-04T13:54:51;0.50;;;0.50;;
25982;SDS011;13773;48.868;10.730;2024-02-04T13:57:17;1.23;;;0.57;;
25982;SDS011;13773;48.868;10.730;2024-02-04T13:59:43;1.37;;;0.50;;
25982;SDS011;13773;48.868;10.730;2024-02-04T14:02:08;0.47;;;0.43;;
25982;SDS011;13773;48.868;10.730;2024-02-04T14:04:34;0.50;;;0.40;;
25982;SDS011;13773;48.868;10.730;2024-02-04T14:07:00;0.60;;;0.57;;
25982;SDS011;13773;48.868;10.730;2024-02-04T14:09:27;0.60;;;0.50;;
25982;SDS011;13773;48.868;10.730;2024-02-04T14:11:53;0.83;;;0.50;;
25982;SDS011;13773;48.868;10.730;2024-02-04T14:14:25;0.53;;;0.50;;
25982;SDS011;13773;48.868;10.730;2024-02-04T14:16:50;0.60;;;0.60;;
25982;SDS011;13773;48.868;10.730;2024-02-04T14:19:16;1.07;;;0.80;;
25982;SDS011;13773;48.868;10.730;2024-02-04T14:21:42;0.90;;;0.80;;
25982;SDS011;13773;48.868;10.730;2024-02-04T14:24:08;0.60;;;0.50;;
25982;SDS011;13773;48.868;10.730;2024-02-04T14:26:34;0.60;;;0.43;;
25982;SDS011;13773;48.868;10.730;2024-02-04T14:29:00;2.30;;;0.80;;
25982;SDS011;13773;48.868;10.730;2024-02-04T14:31:27;1.20;;;0.90;;
25982;SDS011;13773;48.868;10.730;2024-02-04T14:33:53;1.23;;;0.80;;
25982;SDS011;13773;48.868;10.730;2024-02-04T14:36:19;1.67;;;1.00;;
25982;SDS011;13773;48.868;10.730;2024-02-04T14:38:45;1.07;;;0.73;;
25982;SDS011;13773;48.868;10.730;2024-02-04T14:41:11;0.60;;;0.60;;
25982;SDS011;13773;48.868;10.730;2024-02-04T14:43:37;0.77;;;0.60;;
25982;SDS011;13773;48.868;10.730;2024-02-04T14:46:03;0.93;;;0.60;;